Time;durP1;ratioP1;P1;durP2;ratioP2;P2;SDS_P1;SDS_P2;PMS_P1;PMS_P2;Temp;Humidity;BMP_temperature;BMP_pressure;BME280_temperature;BME280_humidity;BME280_pressure;Samples;Min_cycle;Max_cycle;Signal;HPM_P1;HPM_P2
2022/12/09 00:01:14;;;;;;;22.63;15.93;;;3.10;99.90;;;;;;5143795;27;20189;-79
2022/12/09 00:03:41;;;;;;;22.88;15.02;;;3.10;99.90;;;;;;5142456;27;20201;-79
2022/12/09 00:06:10;;;;;;;21.13;14.60;;;3.20;99.90;;;;;;5145823;27;20192;-79
2022/12/09 00:08:38;;;;;;;20.38;15.13;;;3.10;99.90;;;;;;5139741;27;20248;-80
2022/12/09 00:11:06;;;;;;;20.92;14.02;;;3.20;99.90;;;;;;5142204;27;20204;-79
2022/12/09 00:13:33;;;;;;;23.13;14.35;;;3.30;99.90;;;;;;5137762;27;20233;-80
2022/12/09 00:16:05;;;;;;;21.23;14.68;;;3.30;99.90;;;;;;5134380;27;20260;-80
2022/12/09 00:18:32;;;;;;;17.95;13.00;;;3.40;99.90;;;;;;5142794;27;20194;-80
2022/12/09 00:20:59;;;;;;;16.80;12.25;;;3.50;99.90;;;;;;5142068;27;20354;-80
2022/12/09 00:23:26;;;;;;;15.40;13.38;;;3.40;99.90;;;;;;5134750;27;20209;-79
2022/12/09 00:25:57;;;;;;;21.55;14.25;;;3.50;99.90;;;;;;5139471;27;20196;-80
2022/12/09 00:28:24;;;;;;;19.45;13.90;;;3.50;99.90;;;;;;5142120;27;20181;-79
2022/12/09 00:30:50;;;;;;;17.30;13.25;;;3.30;99.90;;;;;;5136735;27;20401;-80
2022/12/09 00:33:17;;;;;;;20.08;13.82;;;3.30;99.90;;;;;;5145212;27;20201;-81
2022/12/09 00:35:44;;;;;;;18.20;12.35;;;3.30;99.90;;;;;;5142986;27;20191;-79
2022/12/09 00:38:11;;;;;;;18.15;12.15;;;3.20;99.90;;;;;;5138911;27;20261;-79
2022/12/09 00:40:38;;;;;;;20.27;12.90;;;3.30;99.90;;;;;;5140289;27;20177;-79
2022/12/09 00:43:06;;;;;;;18.23;13.40;;;3.30;99.90;;;;;;5139309;27;20374;-78
2022/12/09 00:45:33;;;;;;;19.30;14.05;;;3.30;99.90;;;;;;5144900;27;20443;-78
2022/12/09 00:48:00;;;;;;;20.20;11.90;;;3.40;99.90;;;;;;5138089;27;20261;-78
2022/12/09 00:50:27;;;;;;;17.02;12.00;;;3.40;99.90;;;;;;5140892;27;20204;-80
2022/12/09 00:52:53;;;;;;;18.05;14.00;;;3.50;99.90;;;;;;5140910;27;20215;-79
2022/12/09 00:55:20;;;;;;;20.63;13.70;;;3.50;99.90;;;;;;5137119;27;20241;-80
2022/12/09 00:57:47;;;;;;;23.02;13.60;;;3.50;99.90;;;;;;5138194;27;20193;-79
2022/12/09 01:00:16;;;;;;;15.77;13.75;;;3.50;99.90;;;;;;5138437;27;20189;-78
2022/12/09 01:02:43;;;;;;;18.55;14.57;;;3.50;99.90;;;;;;5125623;27;20224;-80
2022/12/09 01:05:10;;;;;;;19.13;12.82;;;3.50;99.90;;;;;;5138813;27;20177;-79
2022/12/09 01:07:37;;;;;;;19.20;12.98;;;3.50;99.90;;;;;;5137507;27;20258;-79
2022/12/09 01:10:05;;;;;;;16.33;13.43;;;3.60;99.90;;;;;;5131020;27;20189;-79
2022/12/09 01:12:33;;;;;;;20.17;14.93;;;3.60;99.90;;;;;;5139927;27;20208;-78
2022/12/09 01:15:01;;;;;;;20.42;14.93;;;3.60;99.90;;;;;;5134980;27;20178;-79
2022/12/09 01:17:29;;;;;;;23.70;17.05;;;3.60;99.90;;;;;;5131539;27;20207;-79
2022/12/09 01:19:56;;;;;;;27.30;16.48;;;3.60;99.90;;;;;;5138125;27;20249;-80
2022/12/09 01:22:23;;;;;;;21.63;14.32;;;3.60;99.90;;;;;;5140108;27;20178;-78
2022/12/09 01:24:50;;;;;;;19.85;13.98;;;3.60;99.90;;;;;;5132279;27;20222;-77
2022/12/09 01:27:17;;;;;;;23.80;16.15;;;3.50;99.90;;;;;;5129356;27;20363;-77
2022/12/09 01:29:45;;;;;;;20.60;15.70;;;3.60;99.90;;;;;;5133471;27;20209;-78
2022/12/09 01:32:12;;;;;;;24.50;17.73;;;3.30;99.90;;;;;;5134731;27;20197;-78
2022/12/09 01:34:40;;;;;;;24.08;15.40;;;3.40;99.90;;;;;;5134767;27;20308;-79
2022/12/09 01:37:07;;;;;;;26.67;15.30;;;3.20;99.90;;;;;;5133026;27;20201;-79
2022/12/09 01:39:35;;;;;;;24.02;16.60;;;3.10;99.90;;;;;;5125665;27;20204;-78
2022/12/09 01:42:02;;;;;;;22.33;15.65;;;3.00;99.90;;;;;;5137056;27;20218;-78
2022/12/09 01:44:32;;;;;;;26.38;18.10;;;2.80;99.90;;;;;;5137319;27;20309;-77
2022/12/09 01:47:01;;;;;;;24.42;15.95;;;2.80;99.90;;;;;;5135181;27;20400;-77
2022/12/09 01:49:31;;;;;;;22.83;17.63;;;2.80;99.90;;;;;;5140126;27;20368;-78
2022/12/09 01:52:05;;;;;;;21.42;16.80;;;2.70;99.90;;;;;;5134077;27;20198;-78
2022/12/09 01:54:33;;;;;;;23.98;15.30;;;2.80;99.90;;;;;;5129265;27;20201;-78
2022/12/09 01:57:00;;;;;;;22.30;15.65;;;2.90;99.90;;;;;;5137721;27;20247;-79
2022/12/09 01:59:28;;;;;;;21.70;17.38;;;2.90;99.90;;;;;;5131588;27;20252;-78
2022/12/09 02:01:58;;;;;;;21.75;14.35;;;2.80;99.90;;;;;;5133921;27;20186;-77
2022/12/09 02:04:26;;;;;;;26.55;15.40;;;2.90;99.90;;;;;;5129717;28;20202;-78
2022/12/09 02:06:53;;;;;;;22.15;14.80;;;2.80;99.90;;;;;;5123145;28;20197;-78
2022/12/09 02:09:21;;;;;;;23.15;16.55;;;2.80;99.90;;;;;;5134096;28;20442;-79
2022/12/09 02:11:59;;;;;;;26.85;16.65;;;2.70;99.90;;;;;;5122457;28;20189;-78
2022/12/09 02:14:31;;;;;;;31.30;17.83;;;2.50;99.90;;;;;;5122604;28;20483;-76
2022/12/09 02:17:13;;;;;;;25.73;16.60;;;2.40;99.90;;;;;;5130584;28;20189;-79
2022/12/09 02:19:54;;;;;;;28.55;18.90;;;2.20;99.90;;;;;;5125916;28;20198;-77
2022/12/09 02:22:26;;;;;;;28.63;18.77;;;2.20;99.90;;;;;;5141974;28;20184;-77
2022/12/09 02:25:00;;;;;;;31.15;19.05;;;2.20;99.90;;;;;;5138785;28;20202;-77
2022/12/09 02:27:32;;;;;;;35.35;19.85;;;2.20;99.90;;;;;;5126507;28;20217;-77
2022/12/09 02:30:10;;;;;;;28.88;19.17;;;2.30;99.90;;;;;;5130370;28;20181;-77
2022/12/09 02:33:06;;;;;;;30.15;19.95;;;2.40;99.90;;;;;;5129083;27;20229;-78
2022/12/09 02:35:39;;;;;;;29.90;18.65;;;2.30;99.90;;;;;;5109438;28;20195;-78
2022/12/09 02:38:10;;;;;;;30.38;20.58;;;2.20;99.90;;;;;;5123768;28;20202;-78
2022/12/09 02:40:44;;;;;;;33.15;22.08;;;2.20;99.90;;;;;;5137482;28;20204;-77
2022/12/09 02:43:12;;;;;;;32.55;19.70;;;2.00;99.90;;;;;;5133909;28;20237;-77
2022/12/09 02:45:42;;;;;;;35.13;20.70;;;1.90;99.90;;;;;;5133271;28;20178;-78
2022/12/09 02:48:11;;;;;;;34.63;19.55;;;1.90;99.90;;;;;;5134138;28;20209;-78
2022/12/09 02:50:42;;;;;;;31.83;21.25;;;1.90;99.90;;;;;;5142490;28;20193;-77
2022/12/09 02:53:11;;;;;;;36.22;20.33;;;1.80;99.90;;;;;;5141279;27;20229;-77
2022/12/09 02:55:40;;;;;;;35.17;21.42;;;1.90;99.90;;;;;;5140109;27;20209;-77
2022/12/09 02:58:07;;;;;;;32.78;20.58;;;1.90;99.90;;;;;;5127127;27;20231;-78
2022/12/09 03:00:34;;;;;;;34.92;22.77;;;1.80;99.90;;;;;;5137740;27;20383;-77
2022/12/09 03:03:03;;;;;;;32.25;21.13;;;1.90;99.90;;;;;;5142534;27;20229;-78
2022/12/09 03:05:39;;;;;;;34.95;21.60;;;2.00;99.90;;;;;;5141037;27;20186;-76
2022/12/09 03:08:16;;;;;;;36.25;21.05;;;2.00;99.90;;;;;;5129151;27;20218;-76
2022/12/09 03:10:54;;;;;;;33.92;20.88;;;2.00;99.90;;;;;;5128549;27;20200;-78
2022/12/09 03:13:31;;;;;;;37.90;22.52;;;2.00;99.90;;;;;;5136129;27;20211;-77
2022/12/09 03:16:04;;;;;;;37.13;22.27;;;2.00;99.90;;;;;;5129305;27;20305;-78
2022/12/09 03:18:33;;;;;;;34.70;20.30;;;2.00;99.90;;;;;;5137285;27;20416;-79
2022/12/09 03:21:03;;;;;;;27.42;19.40;;;2.00;99.90;;;;;;5130080;27;20183;-79
2022/12/09 03:23:34;;;;;;;37.83;20.60;;;2.10;99.90;;;;;;5124188;27;20201;-77
2022/12/09 03:26:03;;;;;;;35.53;21.25;;;2.20;99.90;;;;;;5130924;27;20189;-77
2022/12/09 03:28:34;;;;;;;36.05;20.88;;;2.10;99.90;;;;;;5142762;27;20208;-77
2022/12/09 03:31:07;;;;;;;37.03;22.25;;;2.20;99.90;;;;;;5133328;27;20198;-77
2022/12/09 03:33:34;;;;;;;39.70;21.05;;;2.30;99.90;;;;;;5138972;27;20201;-78
2022/12/09 03:36:04;;;;;;;33.42;20.67;;;2.30;99.90;;;;;;5133488;27;20190;-77
2022/12/09 03:38:36;;;;;;;35.75;19.58;;;2.40;99.90;;;;;;5144577;27;20358;-78
2022/12/09 03:41:08;;;;;;;33.30;20.50;;;2.40;99.90;;;;;;5136586;27;20248;-79
2022/12/09 03:43:40;;;;;;;34.97;19.00;;;2.40;99.90;;;;;;5118326;28;20236;-78
2022/12/09 03:46:07;;;;;;;33.60;21.70;;;2.40;99.90;;;;;;5128384;27;20205;-78
2022/12/09 03:48:34;;;;;;;29.40;20.45;;;2.30;99.90;;;;;;5131055;28;20181;-78
2022/12/09 03:51:09;;;;;;;27.85;19.00;;;2.40;99.90;;;;;;5138675;27;20181;-77
2022/12/09 03:53:44;;;;;;;31.30;20.10;;;2.40;99.90;;;;;;5130355;28;20265;-79
2022/12/09 03:56:17;;;;;;;32.05;21.10;;;2.50;99.90;;;;;;5117189;28;20194;-78
2022/12/09 03:58:47;;;;;;;27.83;19.45;;;2.50;99.90;;;;;;5143318;27;20202;-77
2022/12/09 04:01:20;;;;;;;32.22;20.38;;;2.60;99.90;;;;;;5139795;27;20188;-78
2022/12/09 04:03:49;;;;;;;36.20;19.10;;;2.50;99.90;;;;;;5140515;27;20244;-76
2022/12/09 04:06:16;;;;;;;32.78;19.48;;;2.50;99.90;;;;;;5136480;27;20198;-78
2022/12/09 04:08:45;;;;;;;30.02;19.13;;;2.50;99.90;;;;;;5126452;28;20261;-78
2022/12/09 04:11:12;;;;;;;32.53;20.48;;;2.50;99.90;;;;;;5129157;27;20181;-75
2022/12/09 04:13:39;;;;;;;30.40;18.52;;;2.60;99.90;;;;;;5133353;27;20255;-78
2022/12/09 04:16:06;;;;;;;36.53;19.90;;;2.50;99.90;;;;;;5130760;28;20185;-78
2022/12/09 04:18:34;;;;;;;34.25;20.33;;;2.50;99.90;;;;;;5130539;28;20254;-77
2022/12/09 04:21:06;;;;;;;30.15;19.77;;;2.60;99.90;;;;;;5130560;27;20189;-77
2022/12/09 04:23:34;;;;;;;29.65;17.83;;;2.60;99.90;;;;;;5134004;27;20389;-78
2022/12/09 04:26:02;;;;;;;38.25;18.67;;;2.60;99.90;;;;;;5135428;27;20234;-76
2022/12/09 04:28:29;;;;;;;37.85;20.13;;;2.50;99.90;;;;;;5130234;28;20197;-76
2022/12/09 04:30:57;;;;;;;28.60;18.35;;;2.50;99.90;;;;;;5130035;28;20177;-78
2022/12/09 04:33:24;;;;;;;31.70;19.48;;;2.60;99.90;;;;;;5130648;28;20320;-77
2022/12/09 04:35:51;;;;;;;34.35;19.20;;;2.60;99.90;;;;;;5129004;28;20244;-78
2022/12/09 04:38:19;;;;;;;34.40;20.42;;;2.60;99.90;;;;;;5124109;28;20360;-78
2022/12/09 04:40:46;;;;;;;31.50;20.42;;;2.60;99.90;;;;;;5129070;28;20193;-78
2022/12/09 04:43:15;;;;;;;31.75;18.40;;;2.60;99.90;;;;;;5129585;28;20201;-78
2022/12/09 04:45:41;;;;;;;34.70;19.27;;;2.60;99.90;;;;;;5129866;28;20220;-77
2022/12/09 04:48:08;;;;;;;29.88;18.00;;;2.50;99.90;;;;;;5138988;27;20267;-79
2022/12/09 04:50:35;;;;;;;30.95;18.98;;;2.50;99.90;;;;;;5143011;27;20196;-77
2022/12/09 04:53:02;;;;;;;32.40;18.95;;;2.50;99.90;;;;;;5132566;27;20208;-79
2022/12/09 04:55:29;;;;;;;32.20;18.00;;;2.50;99.90;;;;;;5130387;27;20182;-78
2022/12/09 04:57:56;;;;;;;27.23;17.80;;;2.60;99.90;;;;;;5143308;27;20193;-79
2022/12/09 05:00:24;;;;;;;27.75;17.38;;;2.60;99.90;;;;;;5137211;27;20186;-79
2022/12/09 05:02:51;;;;;;;26.92;17.65;;;2.60;99.90;;;;;;5138211;27;20350;-77
2022/12/09 05:05:19;;;;;;;30.40;18.45;;;2.50;99.90;;;;;;5127026;27;20184;-79
2022/12/09 05:07:46;;;;;;;29.90;17.63;;;2.50;99.90;;;;;;5123754;27;20230;-78
2022/12/09 05:10:13;;;;;;;41.85;19.40;;;2.50;99.90;;;;;;5132003;27;20254;-77
2022/12/09 05:12:40;;;;;;;32.80;18.33;;;2.50;99.90;;;;;;5132503;27;20196;-79
2022/12/09 05:15:08;;;;;;;35.10;20.48;;;2.40;99.90;;;;;;5135159;27;20372;-78
2022/12/09 05:17:36;;;;;;;33.22;19.88;;;2.30;99.90;;;;;;5128497;28;20189;-78
2022/12/09 05:20:07;;;;;;;34.13;18.60;;;2.20;99.90;;;;;;5116620;28;20254;-78
2022/12/09 05:22:34;;;;;;;27.20;19.85;;;2.10;99.90;;;;;;5134250;27;20204;-78
2022/12/09 05:25:01;;;;;;;31.58;19.65;;;2.20;99.90;;;;;;5120738;27;20177;-77
2022/12/09 05:27:28;;;;;;;32.92;21.35;;;2.20;99.90;;;;;;5134592;27;20198;-78
2022/12/09 05:29:55;;;;;;;33.05;20.13;;;2.20;99.90;;;;;;5125858;27;20280;-78
2022/12/09 05:32:22;;;;;;;33.08;17.80;;;2.20;99.90;;;;;;5135918;27;20228;-78
2022/12/09 05:34:51;;;;;;;32.13;18.73;;;2.30;99.90;;;;;;5126610;27;20312;-78
2022/12/09 05:37:18;;;;;;;28.17;18.50;;;2.10;99.90;;;;;;5131278;27;20280;-80
2022/12/09 05:39:45;;;;;;;36.17;19.60;;;2.10;99.90;;;;;;5132610;27;20194;-83
2022/12/09 05:42:11;;;;;;;30.58;18.80;;;2.00;99.90;;;;;;5125406;27;20201;-80
2022/12/09 05:44:38;;;;;;;41.05;22.25;;;1.90;99.90;;;;;;5132496;27;20376;-76
2022/12/09 05:47:05;;;;;;;30.88;19.75;;;1.90;99.90;;;;;;5132375;27;20179;-77
2022/12/09 05:49:33;;;;;;;40.00;23.25;;;2.00;99.90;;;;;;5132002;27;20177;-78
2022/12/09 05:52:01;;;;;;;37.08;22.98;;;2.00;99.90;;;;;;5130751;27;20178;-79
2022/12/09 05:54:29;;;;;;;33.80;21.58;;;2.10;99.90;;;;;;5142282;27;20204;-79
2022/12/09 05:56:56;;;;;;;36.10;22.63;;;1.90;99.90;;;;;;5138928;27;20194;-78
2022/12/09 05:59:24;;;;;;;39.72;22.17;;;1.90;99.90;;;;;;5142846;27;20220;-79
2022/12/09 06:01:52;;;;;;;44.30;24.45;;;1.80;99.90;;;;;;5121506;27;20192;-79
2022/12/09 06:04:19;;;;;;;41.22;23.63;;;1.70;99.90;;;;;;5134326;28;20212;-78
2022/12/09 06:06:46;;;;;;;37.97;23.00;;;1.70;99.90;;;;;;5145694;28;20242;-80
2022/12/09 06:09:14;;;;;;;36.20;20.98;;;1.60;99.90;;;;;;5135060;28;20174;-79
2022/12/09 06:11:42;;;;;;;40.60;22.92;;;1.60;99.90;;;;;;5128250;28;20186;-78
2022/12/09 06:14:11;;;;;;;34.95;22.50;;;1.40;99.90;;;;;;5138608;28;20202;-78
2022/12/09 06:16:38;;;;;;;35.85;21.90;;;1.40;99.90;;;;;;5130059;28;20217;-78
2022/12/09 06:19:05;;;;;;;46.17;23.52;;;1.40;99.90;;;;;;5125766;28;20206;-78
2022/12/09 06:21:32;;;;;;;40.03;22.67;;;1.30;99.90;;;;;;5131358;28;20201;-78
2022/12/09 06:24:01;;;;;;;39.03;20.88;;;1.30;99.90;;;;;;5133487;28;20216;-77
2022/12/09 06:26:30;;;;;;;42.13;22.90;;;1.30;99.90;;;;;;5132440;28;20401;-78
2022/12/09 06:28:58;;;;;;;38.22;23.60;;;1.40;99.90;;;;;;5141221;27;20191;-77
2022/12/09 06:31:25;;;;;;;40.33;24.23;;;1.40;99.90;;;;;;5124582;27;20192;-78
2022/12/09 06:33:52;;;;;;;45.05;23.73;;;1.40;99.90;;;;;;5130869;27;20292;-78
2022/12/09 06:36:19;;;;;;;40.00;23.42;;;1.40;99.90;;;;;;5128327;27;20196;-78
2022/12/09 06:38:46;;;;;;;38.30;24.08;;;1.30;99.90;;;;;;5139279;27;20436;-78
2022/12/09 06:41:15;;;;;;;47.13;25.83;;;1.30;99.90;;;;;;5137807;27;20252;-78
2022/12/09 06:43:44;;;;;;;40.33;23.77;;;1.30;99.90;;;;;;5138526;27;20251;-79
2022/12/09 06:46:13;;;;;;;45.08;24.75;;;1.30;99.90;;;;;;5127326;27;20303;-77
2022/12/09 06:48:40;;;;;;;31.90;23.02;;;1.30;99.90;;;;;;5133390;27;20201;-76
2022/12/09 06:51:08;;;;;;;36.13;21.70;;;1.40;99.90;;;;;;5134544;27;20249;-76
2022/12/09 06:53:36;;;;;;;35.63;22.00;;;1.40;99.90;;;;;;5135199;27;20201;-76
2022/12/09 06:56:04;;;;;;;38.20;22.35;;;1.40;99.90;;;;;;5133159;27;20253;-77
2022/12/09 06:58:32;;;;;;;38.00;23.52;;;1.30;99.90;;;;;;5139084;27;20206;-77
2022/12/09 07:01:07;;;;;;;43.55;24.10;;;1.30;99.90;;;;;;5139711;27;20185;-78
2022/12/09 07:03:34;;;;;;;36.33;21.80;;;1.30;99.90;;;;;;5132652;27;20251;-78
2022/12/09 07:06:01;;;;;;;41.55;25.35;;;1.40;99.90;;;;;;5141584;27;20204;-78
2022/12/09 07:08:29;;;;;;;41.03;23.42;;;1.40;99.90;;;;;;5133679;27;20228;-78
2022/12/09 07:10:56;;;;;;;39.65;23.88;;;1.30;99.90;;;;;;5142031;27;20188;-76
2022/12/09 07:13:23;;;;;;;38.75;24.10;;;1.30;99.90;;;;;;5141993;27;20466;-77
2022/12/09 07:15:49;;;;;;;33.78;22.77;;;1.20;99.90;;;;;;5142922;27;20192;-81
2022/12/09 07:18:19;;;;;;;40.55;25.52;;;1.20;99.90;;;;;;5143197;27;20490;-79
2022/12/09 07:20:46;;;;;;;38.63;26.10;;;1.20;99.90;;;;;;5133426;27;20198;-78
2022/12/09 07:23:13;;;;;;;40.15;25.40;;;1.20;99.90;;;;;;5148085;27;20201;-74
2022/12/09 07:25:40;;;;;;;50.95;25.52;;;1.10;99.90;;;;;;5132789;27;20382;-75
2022/12/09 07:28:06;;;;;;;37.33;24.33;;;1.10;99.90;;;;;;5140251;27;20182;-75
2022/12/09 07:30:36;;;;;;;39.35;24.35;;;1.00;99.90;;;;;;5137234;27;20174;-73
2022/12/09 07:33:11;;;;;;;42.38;24.27;;;1.00;99.90;;;;;;5137805;27;20200;-73
2022/12/09 07:35:39;;;;;;;34.90;23.20;;;1.00;99.90;;;;;;5138877;27;20393;-74
2022/12/09 07:38:09;;;;;;;42.20;26.38;;;1.10;99.90;;;;;;5137907;27;20200;-74
2022/12/09 07:40:37;;;;;;;45.42;30.45;;;1.10;99.90;;;;;;5145287;27;20224;-76
2022/12/09 07:43:07;;;;;;;49.88;28.38;;;1.10;99.90;;;;;;5132297;27;20206;-73
2022/12/09 07:45:39;;;;;;;52.90;29.20;;;1.20;99.90;;;;;;5133443;27;20237;-74
2022/12/09 07:48:07;;;;;;;59.67;28.58;;;1.40;99.90;;;;;;5137815;27;20193;-77
2022/12/09 07:50:34;;;;;;;53.22;29.38;;;1.50;99.90;;;;;;5137809;27;20174;-75
2022/12/09 07:53:03;;;;;;;65.82;30.75;;;1.60;99.90;;;;;;5139208;27;20214;-75
2022/12/09 07:55:30;;;;;;;89.03;35.13;;;1.60;99.90;;;;;;5136676;27;20203;-74
2022/12/09 07:57:57;;;;;;;51.80;28.08;;;1.60;99.90;;;;;;5143799;27;20286;-76
2022/12/09 08:00:24;;;;;;;55.83;28.83;;;1.60;99.90;;;;;;5116401;28;20193;-76
2022/12/09 08:02:52;;;;;;;76.25;33.03;;;1.60;99.90;;;;;;5122867;27;20293;-72
2022/12/09 08:05:20;;;;;;;88.65;34.33;;;1.50;99.90;;;;;;5121596;27;20204;-75
2022/12/09 08:07:47;;;;;;;85.78;35.40;;;1.60;99.90;;;;;;5126758;27;20198;-76
2022/12/09 08:10:16;;;;;;;169.40;46.78;;;1.60;99.90;;;;;;5129708;27;20174;-74
2022/12/09 08:12:43;;;;;;;86.38;35.42;;;1.70;99.90;;;;;;5120306;27;20208;-74
2022/12/09 08:15:10;;;;;;;73.05;32.63;;;1.60;99.90;;;;;;5119310;28;20189;-75
2022/12/09 08:17:37;;;;;;;144.43;42.25;;;1.80;99.90;;;;;;5117581;27;20263;-75
2022/12/09 08:20:05;;;;;;;94.93;35.42;;;1.90;99.90;;;;;;5114033;27;20281;-75
2022/12/09 08:22:34;;;;;;;91.20;34.72;;;2.00;99.90;;;;;;5118597;27;20213;-75
2022/12/09 08:25:01;;;;;;;90.00;36.28;;;2.00;99.90;;;;;;5121531;27;20209;-72
2022/12/09 08:27:29;;;;;;;125.47;45.63;;;2.00;99.90;;;;;;5127215;27;20414;-75
2022/12/09 08:29:56;;;;;;;128.75;44.67;;;2.10;99.90;;;;;;5135710;27;20235;-74
2022/12/09 08:32:23;;;;;;;117.28;42.88;;;2.10;99.90;;;;;;5134763;27;20347;-72
2022/12/09 08:34:50;;;;;;;113.38;41.83;;;2.10;99.90;;;;;;5121618;27;20217;-74
2022/12/09 08:37:17;;;;;;;112.82;39.40;;;2.20;99.90;;;;;;5130478;27;20204;-72
2022/12/09 08:39:44;;;;;;;161.68;42.85;;;2.30;99.90;;;;;;5131798;27;20321;-74
2022/12/09 08:42:11;;;;;;;101.25;40.10;;;2.30;99.90;;;;;;5138497;27;20424;-73
2022/12/09 08:44:39;;;;;;;112.88;41.63;;;2.40;99.90;;;;;;5123441;27;20202;-73
2022/12/09 08:47:06;;;;;;;122.00;38.22;;;2.40;99.90;;;;;;5125828;27;20246;-74
2022/12/09 08:49:33;;;;;;;110.25;43.13;;;2.30;99.90;;;;;;5124980;27;20201;-73
2022/12/09 08:52:00;;;;;;;104.75;40.05;;;2.30;99.90;;;;;;5138717;27;20402;-74
2022/12/09 08:54:27;;;;;;;99.45;40.70;;;2.30;99.90;;;;;;5136139;27;20431;-74
2022/12/09 08:56:55;;;;;;;98.90;37.97;;;2.40;99.90;;;;;;5131143;27;20235;-73
2022/12/09 08:59:22;;;;;;;83.15;39.28;;;2.60;99.90;;;;;;5122449;27;20456;-73
2022/12/09 09:01:51;;;;;;;80.90;33.60;;;2.60;99.90;;;;;;5131333;27;20411;-73
2022/12/09 09:04:19;;;;;;;72.32;38.72;;;2.60;99.90;;;;;;5141686;27;20211;-73
2022/12/09 09:06:48;;;;;;;80.50;37.33;;;2.70;99.90;;;;;;5140094;27;20224;-74
2022/12/09 09:09:16;;;;;;;86.05;35.75;;;2.60;99.90;;;;;;5142738;27;20291;-73
2022/12/09 09:11:43;;;;;;;95.22;44.50;;;2.50;99.90;;;;;;5137170;27;20200;-72
2022/12/09 09:14:11;;;;;;;71.18;35.40;;;2.60;99.90;;;;;;5139587;27;20226;-73
2022/12/09 09:16:41;;;;;;;74.15;35.70;;;2.60;99.90;;;;;;5143295;27;20177;-73
2022/12/09 09:19:14;;;;;;;92.10;37.63;;;2.70;99.90;;;;;;5137922;27;20238;-72
2022/12/09 09:21:41;;;;;;;72.45;35.92;;;2.80;99.90;;;;;;5143314;27;20200;-75
2022/12/09 09:24:10;;;;;;;73.18;36.63;;;2.60;99.90;;;;;;5129917;27;20224;-74
2022/12/09 09:26:40;;;;;;;79.10;35.35;;;2.70;99.90;;;;;;5141562;27;20220;-73
2022/12/09 09:29:08;;;;;;;77.82;34.83;;;2.90;99.90;;;;;;5137227;27;20178;-73
2022/12/09 09:31:34;;;;;;;65.90;35.72;;;2.80;99.90;;;;;;5115899;28;20182;-74
2022/12/09 09:34:01;;;;;;;74.70;36.65;;;2.90;99.90;;;;;;5143568;27;20231;-74
2022/12/09 09:36:30;;;;;;;75.13;32.85;;;2.80;99.90;;;;;;5110081;28;20186;-73
2022/12/09 09:38:57;;;;;;;83.22;35.15;;;2.80;99.90;;;;;;5140377;27;20305;-74
2022/12/09 09:41:37;;;;;;;67.38;33.63;;;2.80;99.90;;;;;;5129756;27;20212;-74
2022/12/09 09:44:10;;;;;;;61.80;33.65;;;2.90;99.90;;;;;;5127407;28;20205;-69
2022/12/09 09:46:42;;;;;;;74.38;35.90;;;3.00;99.90;;;;;;5132014;27;20228;-70
2022/12/09 09:49:16;;;;;;;94.35;36.83;;;2.70;99.90;;;;;;5131709;27;20287;-69
2022/12/09 09:51:44;;;;;;;69.13;34.63;;;2.70;99.90;;;;;;5138121;27;20208;-70
2022/12/09 09:54:13;;;;;;;85.03;35.20;;;2.70;99.90;;;;;;5137739;27;20207;-69
2022/12/09 09:56:47;;;;;;;96.90;36.33;;;2.60;99.90;;;;;;5139047;27;20194;-70
2022/12/09 09:59:32;;;;;;;104.85;39.90;;;2.50;99.90;;;;;;5129544;27;20422;-68
2022/12/09 10:02:15;;;;;;;99.18;38.88;;;2.60;99.90;;;;;;5133028;27;20212;-70
2022/12/09 10:04:51;;;;;;;74.15;35.65;;;2.50;99.90;;;;;;5140166;27;20246;-70
2022/12/09 10:07:25;;;;;;;75.20;37.55;;;2.50;99.90;;;;;;5126943;28;20235;-70
2022/12/09 10:10:02;;;;;;;86.25;36.47;;;2.50;99.90;;;;;;5124779;28;20261;-69
2022/12/09 10:12:37;;;;;;;84.93;36.65;;;2.50;99.90;;;;;;5114874;28;20186;-70
2022/12/09 10:15:10;;;;;;;83.43;37.25;;;2.60;99.90;;;;;;5121505;28;20201;-69
2022/12/09 10:17:47;;;;;;;66.78;34.78;;;2.60;99.90;;;;;;5131638;28;20348;-68
2022/12/09 10:20:16;;;;;;;84.63;38.40;;;2.80;99.90;;;;;;5110019;28;20198;-70
2022/12/09 10:22:49;;;;;;;84.75;38.70;;;2.70;99.90;;;;;;5137517;28;20197;-68
2022/12/09 10:25:20;;;;;;;75.28;37.45;;;2.80;99.90;;;;;;5117917;28;20269;-70
2022/12/09 10:27:53;;;;;;;70.43;35.10;;;2.80;99.90;;;;;;5123892;28;20231;-69
2022/12/09 10:30:21;;;;;;;62.13;35.17;;;3.00;99.90;;;;;;5135215;27;20257;-69
2022/12/09 10:32:48;;;;;;;65.70;35.15;;;2.90;99.90;;;;;;5133683;28;20181;-69
2022/12/09 10:35:18;;;;;;;73.95;37.97;;;3.10;99.90;;;;;;5137150;28;20225;-70
2022/12/09 10:37:47;;;;;;;63.55;32.63;;;3.00;99.90;;;;;;5127160;27;20224;-69
2022/12/09 10:40:28;;;;;;;58.90;34.92;;;3.10;99.90;;;;;;5131342;28;20205;-70
2022/12/09 10:45:47;;;;;;;63.42;35.65;;;3.10;99.90;;;;;;5127892;28;20187;-69
2022/12/09 10:48:27;;;;;;;75.50;32.78;;;3.10;99.90;;;;;;5132887;28;20186;-69
2022/12/09 10:50:56;;;;;;;66.07;33.35;;;3.10;99.90;;;;;;5128145;28;20209;-70
2022/12/09 10:53:26;;;;;;;52.03;31.27;;;3.00;99.90;;;;;;5121182;28;20202;-72
2022/12/09 10:55:55;;;;;;;64.70;33.70;;;3.10;99.90;;;;;;5126873;28;20242;-70
2022/12/09 10:58:24;;;;;;;69.68;32.80;;;3.20;99.90;;;;;;5130480;28;20262;-70
2022/12/09 11:01:07;;;;;;;69.65;34.65;;;3.00;99.90;;;;;;5122425;28;20209;-70
2022/12/09 11:03:37;;;;;;;70.35;32.42;;;3.00;99.90;;;;;;5129745;28;20486;-70
2022/12/09 11:06:16;;;;;;;69.32;32.90;;;3.00;99.90;;;;;;5122078;28;20193;-70
2022/12/09 11:08:51;;;;;;;59.30;31.30;;;2.90;99.90;;;;;;5123882;28;20185;-72
2022/12/09 11:11:18;;;;;;;59.45;31.63;;;3.10;99.90;;;;;;5134565;27;20307;-72
2022/12/09 11:13:45;;;;;;;54.22;30.17;;;3.30;99.90;;;;;;5128905;27;20292;-76
2022/12/09 11:16:12;;;;;;;57.33;29.80;;;3.30;99.90;;;;;;5137742;27;20316;-69
2022/12/09 11:18:45;;;;;;;61.47;30.38;;;3.40;99.90;;;;;;5126457;27;20276;-71
2022/12/09 11:21:31;;;;;;;63.13;28.83;;;3.40;99.90;;;;;;5119172;27;20212;-70
2022/12/09 11:23:59;;;;;;;54.90;29.30;;;3.50;99.90;;;;;;5131223;27;20215;-70
2022/12/09 11:26:35;;;;;;;64.05;32.08;;;3.50;99.90;;;;;;5130306;28;20217;-71
2022/12/09 11:29:05;;;;;;;60.42;32.33;;;3.20;99.90;;;;;;5128750;27;20177;-70
2022/12/09 11:31:37;;;;;;;73.32;32.28;;;3.10;99.90;;;;;;5130681;27;20180;-71
2022/12/09 11:34:12;;;;;;;53.60;28.60;;;3.10;99.90;;;;;;5125079;27;20221;-70
2022/12/09 11:36:46;;;;;;;68.93;30.35;;;3.10;99.90;;;;;;5133339;27;20217;-70
2022/12/09 11:39:23;;;;;;;60.97;30.40;;;3.10;99.90;;;;;;5136137;27;20228;-71
2022/12/09 11:44:38;;;;;;;54.38;31.42;;;3.10;99.90;;;;;;5125714;27;20205;-70
2022/12/09 11:47:09;;;;;;;61.10;31.17;;;3.00;99.90;;;;;;5125540;27;20229;-70
2022/12/09 11:49:43;;;;;;;64.70;31.85;;;2.90;99.90;;;;;;5138537;27;20180;-70
2022/12/09 11:52:24;;;;;;;69.78;34.35;;;2.60;99.90;;;;;;5126450;28;20182;-70
2022/12/09 11:55:10;;;;;;;82.22;33.83;;;2.60;99.90;;;;;;5126724;27;20507;-69
2022/12/09 11:57:49;;;;;;;85.82;32.67;;;2.70;99.90;;;;;;5137269;27;20219;-70
2022/12/09 12:00:24;;;;;;;60.47;28.88;;;2.70;99.90;;;;;;5128639;27;20225;-71
2022/12/09 12:03:00;;;;;;;61.33;27.70;;;2.70;99.90;;;;;;5124694;27;20196;-70
2022/12/09 12:05:32;;;;;;;79.15;33.88;;;2.60;99.90;;;;;;5125418;27;20178;-71
2022/12/09 12:08:12;;;;;;;69.43;31.70;;;2.50;99.90;;;;;;5132899;27;20193;-71
2022/12/09 12:10:44;;;;;;;85.93;33.08;;;2.60;99.90;;;;;;5141058;27;20184;-69
2022/12/09 12:13:20;;;;;;;73.18;30.40;;;2.60;99.90;;;;;;5135331;27;20205;-72
2022/12/09 12:15:52;;;;;;;53.38;28.13;;;2.70;99.90;;;;;;5136553;27;20223;-70
2022/12/09 12:18:20;;;;;;;58.28;28.52;;;2.70;99.90;;;;;;5144934;27;20177;-71
2022/12/09 12:21:14;;;;;;;56.80;27.15;;;2.90;99.90;;;;;;5130180;27;20221;-71
2022/12/09 12:24:20;;;;;;;69.97;30.02;;;2.90;99.90;;;;;;5127052;27;20318;-70
2022/12/09 12:26:59;;;;;;;61.55;29.17;;;2.90;99.90;;;;;;5070390;28;20191;-70
2022/12/09 12:29:37;;;;;;;72.88;29.88;;;2.80;99.90;;;;;;5058443;28;20234;-70
2022/12/09 12:32:21;;;;;;;63.28;31.50;;;2.80;99.90;;;;;;5096351;27;20184;-71
2022/12/09 12:35:00;;;;;;;54.92;27.88;;;2.80;99.90;;;;;;5133254;27;20482;-70
2022/12/09 12:37:50;;;;;;;65.45;29.52;;;2.90;99.90;;;;;;5119192;27;20414;-71
2022/12/09 12:40:27;;;;;;;67.07;26.98;;;3.00;99.90;;;;;;5132208;27;20193;-70
2022/12/09 12:48:54;;;;;;;55.70;27.38;;;2.90;99.90;;;;;;5134148;27;20187;-70
2022/12/09 12:51:32;;;;;;;64.60;29.25;;;2.90;99.90;;;;;;5123386;28;20174;-71
2022/12/09 12:54:11;;;;;;;65.28;30.15;;;2.80;99.90;;;;;;5139860;27;20201;-70
2022/12/09 12:56:46;;;;;;;50.55;29.67;;;2.90;99.90;;;;;;5128826;27;20185;-71
2022/12/09 12:59:23;;;;;;;70.43;31.08;;;2.90;99.90;;;;;;5140585;27;20192;-70
2022/12/09 13:01:53;;;;;;;66.20;31.65;;;2.80;99.90;;;;;;5127584;27;20221;-71